sensor_id;sensor_type;location;lat;lon;timestamp;P1;durP1;ratioP1;P2;durP2;ratioP2
68989;SDS011;56046;47.270;11.368;2023-04-01T00:00:59;4.68;;;1.15;;
68989;SDS011;56046;47.270;11.368;2023-04-01T00:03:25;3.27;;;1.10;;
68989;SDS011;56046;47.270;11.368;2023-04-01T00:05:52;2.92;;;0.95;;
68989;SDS011;56046;47.270;11.368;2023-04-01T00:08:17;2.83;;;1.00;;
68989;SDS011;56046;47.270;11.368;2023-04-01T00:10:43;2.85;;;0.90;;
68989;SDS011;56046;47.270;11.368;2023-04-01T00:13:08;4.53;;;0.93;;
68989;SDS011;56046;47.270;11.368;2023-04-01T00:15:34;2.67;;;1.07;;
68989;SDS011;56046;47.270;11.368;2023-04-01T00:17:59;4.00;;;1.00;;
68989;SDS011;56046;47.270;11.368;2023-04-01T00:20:25;2.55;;;1.23;;
68989;SDS011;56046;47.270;11.368;2023-04-01T00:22:51;2.60;;;1.20;;
68989;SDS011;56046;47.270;11.368;2023-04-01T00:25:16;3.72;;;1.00;;
68989;SDS011;56046;47.270;11.368;2023-04-01T00:27:41;3.27;;;1.07;;
68989;SDS011;56046;47.270;11.368;2023-04-01T00:30:07;2.90;;;0.80;;
68989;SDS011;56046;47.270;11.368;2023-04-01T00:32:33;1.93;;;0.80;;
68989;SDS011;56046;47.270;11.368;2023-04-01T00:34:58;2.35;;;0.70;;
68989;SDS011;56046;47.270;11.368;2023-04-01T00:37:25;4.35;;;1.50;;
68989;SDS011;56046;47.270;11.368;2023-04-01T00:39:50;2.20;;;0.70;;
68989;SDS011;56046;47.270;11.368;2023-04-01T00:42:15;2.23;;;0.80;;
68989;SDS011;56046;47.270;11.368;2023-04-01T00:44:41;1.92;;;0.80;;
68989;SDS011;56046;47.270;11.368;2023-04-01T00:47:06;2.95;;;0.60;;
68989;SDS011;56046;47.270;11.368;2023-04-01T00:49:33;2.57;;;0.90;;
68989;SDS011;56046;47.270;11.368;2023-04-01T00:52:00;3.05;;;0.80;;
68989;SDS011;56046;47.270;11.368;2023-04-01T00:54:26;3.70;;;0.80;;
68989;SDS011;56046;47.270;11.368;2023-04-01T00:59:24;1.92;;;0.70;;
68989;SDS011;56046;47.270;11.368;2023-04-01T01:01:50;2.45;;;0.60;;
68989;SDS011;56046;47.270;11.368;2023-04-01T01:04:22;3.53;;;0.90;;
68989;SDS011;56046;47.270;11.368;2023-04-01T01:06:59;2.50;;;1.08;;
68989;SDS011;56046;47.270;11.368;2023-04-01T01:09:35;2.38;;;0.60;;
68989;SDS011;56046;47.270;11.368;2023-04-01T01:14:32;2.13;;;0.80;;
68989;SDS011;56046;47.270;11.368;2023-04-01T01:17:02;1.17;;;0.40;;
68989;SDS011;56046;47.270;11.368;2023-04-01T01:19:36;2.33;;;0.68;;
68989;SDS011;56046;47.270;11.368;2023-04-01T01:27:16;2.97;;;0.70;;
68989;SDS011;56046;47.270;11.368;2023-04-01T01:34:50;2.67;;;0.80;;
68989;SDS011;56046;47.270;11.368;2023-04-01T01:37:19;2.57;;;0.67;;
68989;SDS011;56046;47.270;11.368;2023-04-01T01:39:47;1.52;;;0.60;;
68989;SDS011;56046;47.270;11.368;2023-04-01T01:42:13;2.80;;;0.80;;
68989;SDS011;56046;47.270;11.368;2023-04-01T01:44:40;1.90;;;0.70;;
68989;SDS011;56046;47.270;11.368;2023-04-01T01:47:07;1.63;;;0.80;;
68989;SDS011;56046;47.270;11.368;2023-04-01T01:49:33;1.97;;;0.50;;
68989;SDS011;56046;47.270;11.368;2023-04-01T01:51:58;1.40;;;0.60;;
68989;SDS011;56046;47.270;11.368;2023-04-01T01:54:24;1.67;;;0.70;;
68989;SDS011;56046;47.270;11.368;2023-04-01T01:56:51;3.13;;;0.70;;
68989;SDS011;56046;47.270;11.368;2023-04-01T01:59:17;2.50;;;1.00;;
68989;SDS011;56046;47.270;11.368;2023-04-01T02:04:34;2.45;;;0.60;;
68989;SDS011;56046;47.270;11.368;2023-04-01T02:07:00;1.60;;;0.75;;
68989;SDS011;56046;47.270;11.368;2023-04-01T02:09:27;1.63;;;0.70;;
68989;SDS011;56046;47.270;11.368;2023-04-01T02:11:53;3.45;;;0.80;;
68989;SDS011;56046;47.270;11.368;2023-04-01T02:14:21;2.00;;;0.60;;
68989;SDS011;56046;47.270;11.368;2023-04-01T02:16:49;3.00;;;0.70;;
68989;SDS011;56046;47.270;11.368;2023-04-01T02:19:17;5.35;;;0.70;;
68989;SDS011;56046;47.270;11.368;2023-04-01T02:21:47;1.40;;;0.45;;
68989;SDS011;56046;47.270;11.368;2023-04-01T02:24:15;2.50;;;0.70;;
68989;SDS011;56046;47.270;11.368;2023-04-01T02:26:41;2.43;;;0.50;;
68989;SDS011;56046;47.270;11.368;2023-04-01T02:29:06;1.77;;;0.60;;
68989;SDS011;56046;47.270;11.368;2023-04-01T02:31:34;2.70;;;0.50;;
68989;SDS011;56046;47.270;11.368;2023-04-01T02:33:59;2.10;;;0.60;;
68989;SDS011;56046;47.270;11.368;2023-04-01T02:36:25;1.10;;;0.40;;
68989;SDS011;56046;47.270;11.368;2023-04-01T02:38:50;1.07;;;0.60;;
68989;SDS011;56046;47.270;11.368;2023-04-01T02:41:17;1.50;;;0.52;;
68989;SDS011;56046;47.270;11.368;2023-04-01T02:43:42;0.80;;;0.40;;
68989;SDS011;56046;47.270;11.368;2023-04-01T02:46:07;0.87;;;0.50;;
68989;SDS011;56046;47.270;11.368;2023-04-01T02:48:33;2.33;;;0.53;;
68989;SDS011;56046;47.270;11.368;2023-04-01T02:50:58;1.93;;;0.50;;
68989;SDS011;56046;47.270;11.368;2023-04-01T02:53:24;1.00;;;0.50;;
68989;SDS011;56046;47.270;11.368;2023-04-01T02:55:49;1.73;;;0.70;;
68989;SDS011;56046;47.270;11.368;2023-04-01T02:58:17;1.00;;;0.57;;
68989;SDS011;56046;47.270;11.368;2023-04-01T03:00:43;1.40;;;0.63;;
68989;SDS011;56046;47.270;11.368;2023-04-01T03:03:11;2.07;;;0.90;;
68989;SDS011;56046;47.270;11.368;2023-04-01T03:05:38;2.92;;;0.75;;
68989;SDS011;56046;47.270;11.368;2023-04-01T03:08:03;1.03;;;0.60;;
68989;SDS011;56046;47.270;11.368;2023-04-01T03:10:29;3.25;;;0.70;;
68989;SDS011;56046;47.270;11.368;2023-04-01T03:12:54;1.23;;;0.60;;
68989;SDS011;56046;47.270;11.368;2023-04-01T03:15:19;1.63;;;0.60;;
68989;SDS011;56046;47.270;11.368;2023-04-01T03:17:45;3.17;;;0.70;;
68989;SDS011;56046;47.270;11.368;2023-04-01T03:20:11;1.25;;;0.50;;
68989;SDS011;56046;47.270;11.368;2023-04-01T03:22:37;1.20;;;0.70;;
68989;SDS011;56046;47.270;11.368;2023-04-01T03:25:03;2.50;;;1.13;;
68989;SDS011;56046;47.270;11.368;2023-04-01T03:27:28;2.20;;;0.70;;
68989;SDS011;56046;47.270;11.368;2023-04-01T03:29:54;2.27;;;0.63;;
68989;SDS011;56046;47.270;11.368;2023-04-01T03:32:19;1.40;;;0.60;;
68989;SDS011;56046;47.270;11.368;2023-04-01T03:34:44;1.27;;;0.60;;
68989;SDS011;56046;47.270;11.368;2023-04-01T03:37:10;1.33;;;0.50;;
68989;SDS011;56046;47.270;11.368;2023-04-01T03:39:35;1.00;;;0.50;;
68989;SDS011;56046;47.270;11.368;2023-04-01T03:42:00;1.40;;;0.53;;
68989;SDS011;56046;47.270;11.368;2023-04-01T03:44:26;3.77;;;0.60;;
68989;SDS011;56046;47.270;11.368;2023-04-01T03:46:51;2.83;;;0.60;;
68989;SDS011;56046;47.270;11.368;2023-04-01T03:49:16;1.23;;;0.50;;
68989;SDS011;56046;47.270;11.368;2023-04-01T03:51:42;1.53;;;0.50;;
68989;SDS011;56046;47.270;11.368;2023-04-01T03:54:08;2.25;;;0.60;;
68989;SDS011;56046;47.270;11.368;2023-04-01T03:56:34;2.58;;;0.60;;
68989;SDS011;56046;47.270;11.368;2023-04-01T03:59:01;1.97;;;0.70;;
68989;SDS011;56046;47.270;11.368;2023-04-01T04:01:27;1.23;;;0.50;;
68989;SDS011;56046;47.270;11.368;2023-04-01T04:03:52;1.40;;;0.70;;
68989;SDS011;56046;47.270;11.368;2023-04-01T04:06:18;2.23;;;0.60;;
68989;SDS011;56046;47.270;11.368;2023-04-01T04:08:44;1.40;;;0.50;;
68989;SDS011;56046;47.270;11.368;2023-04-01T04:11:09;2.83;;;0.90;;
68989;SDS011;56046;47.270;11.368;2023-04-01T04:13:35;3.28;;;0.70;;
68989;SDS011;56046;47.270;11.368;2023-04-01T04:16:01;2.13;;;0.80;;
68989;SDS011;56046;47.270;11.368;2023-04-01T04:18:26;1.67;;;0.80;;
68989;SDS011;56046;47.270;11.368;2023-04-01T04:20:52;1.90;;;0.87;;
68989;SDS011;56046;47.270;11.368;2023-04-01T04:23:17;1.63;;;0.90;;
68989;SDS011;56046;47.270;11.368;2023-04-01T04:28:20;7.07;;;2.42;;
68989;SDS011;56046;47.270;11.368;2023-04-01T04:30:45;4.88;;;1.98;;
68989;SDS011;56046;47.270;11.368;2023-04-01T04:33:10;4.57;;;1.87;;
68989;SDS011;56046;47.270;11.368;2023-04-01T04:35:36;6.93;;;2.20;;
68989;SDS011;56046;47.270;11.368;2023-04-01T04:38:01;2.67;;;1.20;;
68989;SDS011;56046;47.270;11.368;2023-04-01T04:40:26;3.17;;;1.47;;
68989;SDS011;56046;47.270;11.368;2023-04-01T04:42:51;3.20;;;1.47;;
68989;SDS011;56046;47.270;11.368;2023-04-01T04:45:17;3.70;;;1.43;;
68989;SDS011;56046;47.270;11.368;2023-04-01T04:47:42;3.00;;;1.43;;
68989;SDS011;56046;47.270;11.368;2023-04-01T04:50:08;4.63;;;2.10;;
68989;SDS011;56046;47.270;11.368;2023-04-01T04:52:33;4.53;;;2.00;;
68989;SDS011;56046;47.270;11.368;2023-04-01T04:54:58;3.83;;;1.92;;
68989;SDS011;56046;47.270;11.368;2023-04-01T04:57:24;5.25;;;2.08;;
68989;SDS011;56046;47.270;11.368;2023-04-01T04:59:49;4.33;;;1.70;;
68989;SDS011;56046;47.270;11.368;2023-04-01T05:02:15;3.53;;;1.70;;
68989;SDS011;56046;47.270;11.368;2023-04-01T05:04:40;4.87;;;1.50;;
68989;SDS011;56046;47.270;11.368;2023-04-01T05:07:05;2.25;;;1.05;;
68989;SDS011;56046;47.270;11.368;2023-04-01T05:09:31;3.67;;;0.90;;
68989;SDS011;56046;47.270;11.368;2023-04-01T05:11:57;3.00;;;1.10;;
68989;SDS011;56046;47.270;11.368;2023-04-01T05:14:22;3.10;;;1.00;;
68989;SDS011;56046;47.270;11.368;2023-04-01T05:16:47;4.30;;;1.10;;
68989;SDS011;56046;47.270;11.368;2023-04-01T05:19:12;2.33;;;1.10;;
68989;SDS011;56046;47.270;11.368;2023-04-01T05:21:38;2.13;;;0.90;;
68989;SDS011;56046;47.270;11.368;2023-04-01T05:24:03;1.93;;;0.90;;
68989;SDS011;56046;47.270;11.368;2023-04-01T05:26:28;2.43;;;0.80;;
68989;SDS011;56046;47.270;11.368;2023-04-01T05:28:54;1.97;;;0.77;;
68989;SDS011;56046;47.270;11.368;2023-04-01T05:31:19;2.83;;;1.10;;
68989;SDS011;56046;47.270;11.368;2023-04-01T05:33:45;3.60;;;1.73;;
68989;SDS011;56046;47.270;11.368;2023-04-01T05:36:11;8.47;;;4.30;;
68989;SDS011;56046;47.270;11.368;2023-04-01T05:38:37;6.97;;;2.95;;
68989;SDS011;56046;47.270;11.368;2023-04-01T05:41:02;10.82;;;5.53;;
68989;SDS011;56046;47.270;11.368;2023-04-01T05:43:28;4.55;;;1.90;;
68989;SDS011;56046;47.270;11.368;2023-04-01T05:45:54;2.40;;;1.13;;
68989;SDS011;56046;47.270;11.368;2023-04-01T05:48:20;1.87;;;0.70;;
68989;SDS011;56046;47.270;11.368;2023-04-01T05:50:45;2.63;;;0.70;;
68989;SDS011;56046;47.270;11.368;2023-04-01T05:53:11;4.37;;;0.77;;
68989;SDS011;56046;47.270;11.368;2023-04-01T05:55:36;0.90;;;0.60;;
68989;SDS011;56046;47.270;11.368;2023-04-01T05:58:01;3.95;;;0.70;;
68989;SDS011;56046;47.270;11.368;2023-04-01T06:00:27;1.10;;;0.70;;
68989;SDS011;56046;47.270;11.368;2023-04-01T06:02:52;2.67;;;0.90;;
68989;SDS011;56046;47.270;11.368;2023-04-01T06:05:27;1.83;;;0.70;;
68989;SDS011;56046;47.270;11.368;2023-04-01T06:07:56;8.48;;;2.88;;
68989;SDS011;56046;47.270;11.368;2023-04-01T06:10:22;10.80;;;4.30;;
68989;SDS011;56046;47.270;11.368;2023-04-01T06:13:17;6.75;;;3.03;;
68989;SDS011;56046;47.270;11.368;2023-04-01T06:15:53;5.20;;;2.35;;
68989;SDS011;56046;47.270;11.368;2023-04-01T06:18:29;5.63;;;2.58;;
68989;SDS011;56046;47.270;11.368;2023-04-01T06:23:49;4.50;;;1.70;;
68989;SDS011;56046;47.270;11.368;2023-04-01T06:26:25;4.35;;;2.45;;
68989;SDS011;56046;47.270;11.368;2023-04-01T06:46:57;5.20;;;2.47;;
68989;SDS011;56046;47.270;11.368;2023-04-01T06:54:18;8.37;;;4.73;;
68989;SDS011;56046;47.270;11.368;2023-04-01T06:56:46;5.15;;;2.08;;
68989;SDS011;56046;47.270;11.368;2023-04-01T06:59:17;4.57;;;1.38;;
68989;SDS011;56046;47.270;11.368;2023-04-01T07:04:46;2.47;;;1.17;;
68989;SDS011;56046;47.270;11.368;2023-04-01T07:09:50;6.57;;;2.13;;
68989;SDS011;56046;47.270;11.368;2023-04-01T07:14:57;4.78;;;2.05;;
68989;SDS011;56046;47.270;11.368;2023-04-01T07:17:27;5.13;;;2.20;;
68989;SDS011;56046;47.270;11.368;2023-04-01T07:20:17;5.28;;;2.13;;
68989;SDS011;56046;47.270;11.368;2023-04-01T07:25:26;8.17;;;3.90;;
68989;SDS011;56046;47.270;11.368;2023-04-01T07:27:53;7.97;;;3.30;;
68989;SDS011;56046;47.270;11.368;2023-04-01T07:30:22;7.10;;;3.72;;
68989;SDS011;56046;47.270;11.368;2023-04-01T07:32:51;6.63;;;3.30;;
68989;SDS011;56046;47.270;11.368;2023-04-01T07:50:26;6.50;;;2.85;;
68989;SDS011;56046;47.270;11.368;2023-04-01T07:55:24;6.70;;;3.00;;
68989;SDS011;56046;47.270;11.368;2023-04-01T08:00:47;8.73;;;3.05;;
68989;SDS011;56046;47.270;11.368;2023-04-01T08:06:00;6.82;;;3.13;;
68989;SDS011;56046;47.270;11.368;2023-04-01T08:08:41;6.88;;;3.33;;
68989;SDS011;56046;47.270;11.368;2023-04-01T08:11:46;6.17;;;3.27;;
68989;SDS011;56046;47.270;11.368;2023-04-01T08:16:32;7.32;;;3.40;;
68989;SDS011;56046;47.270;11.368;2023-04-01T08:22:02;5.40;;;2.85;;
68989;SDS011;56046;47.270;11.368;2023-04-01T08:24:36;7.30;;;3.10;;
68989;SDS011;56046;47.270;11.368;2023-04-01T08:27:04;6.22;;;2.92;;
68989;SDS011;56046;47.270;11.368;2023-04-01T08:29:41;6.88;;;2.70;;
68989;SDS011;56046;47.270;11.368;2023-04-01T08:32:18;4.38;;;2.10;;
68989;SDS011;56046;47.270;11.368;2023-04-01T08:34:47;3.28;;;1.70;;
68989;SDS011;56046;47.270;11.368;2023-04-01T08:39:39;2.13;;;1.23;;
68989;SDS011;56046;47.270;11.368;2023-04-01T08:44:46;2.33;;;1.10;;
68989;SDS011;56046;47.270;11.368;2023-04-01T08:53:03;3.73;;;1.20;;
68989;SDS011;56046;47.270;11.368;2023-04-01T08:55:43;3.90;;;1.50;;
68989;SDS011;56046;47.270;11.368;2023-04-01T09:00:49;3.22;;;1.27;;
68989;SDS011;56046;47.270;11.368;2023-04-01T09:08:40;2.97;;;1.30;;
68989;SDS011;56046;47.270;11.368;2023-04-01T09:11:12;2.70;;;1.00;;
68989;SDS011;56046;47.270;11.368;2023-04-01T09:13:51;3.10;;;1.10;;
68989;SDS011;56046;47.270;11.368;2023-04-01T09:29:44;1.43;;;0.90;;
68989;SDS011;56046;47.270;11.368;2023-04-01T09:39:43;1.17;;;0.90;;
68989;SDS011;56046;47.270;11.368;2023-04-01T09:44:43;0.80;;;0.80;;
68989;SDS011;56046;47.270;11.368;2023-04-01T09:49:57;1.57;;;0.70;;
68989;SDS011;56046;47.270;11.368;2023-04-01T09:55:15;1.10;;;0.80;;
68989;SDS011;56046;47.270;11.368;2023-04-01T10:00:22;0.70;;;0.50;;
68989;SDS011;56046;47.270;11.368;2023-04-01T10:26:16;2.53;;;0.98;;
68989;SDS011;56046;47.270;11.368;2023-04-01T10:56:34;1.17;;;0.80;;
68989;SDS011;56046;47.270;11.368;2023-04-01T11:01:37;1.03;;;0.93;;
68989;SDS011;56046;47.270;11.368;2023-04-01T11:23:10;1.00;;;0.90;;
68989;SDS011;56046;47.270;11.368;2023-04-01T11:34:00;1.05;;;0.95;;
68989;SDS011;56046;47.270;11.368;2023-04-01T11:39:11;0.80;;;0.63;;
68989;SDS011;56046;47.270;11.368;2023-04-01T11:44:26;1.75;;;1.60;;
68989;SDS011;56046;47.270;11.368;2023-04-01T12:10:59;2.65;;;1.05;;
68989;SDS011;56046;47.270;11.368;2023-04-01T12:20:50;1.10;;;1.00;;
68989;SDS011;56046;47.270;11.368;2023-04-01T12:23:32;1.00;;;0.85;;
68989;SDS011;56046;47.270;11.368;2023-04-01T12:39:05;1.00;;;0.93;;
68989;SDS011;56046;47.270;11.368;2023-04-01T12:51:52;2.28;;;0.50;;
68989;SDS011;56046;47.270;11.368;2023-04-01T13:19:55;0.60;;;0.60;;
68989;SDS011;56046;47.270;11.368;2023-04-01T13:32:45;0.80;;;0.60;;
68989;SDS011;56046;47.270;11.368;2023-04-01T13:35:22;0.70;;;0.60;;
68989;SDS011;56046;47.270;11.368;2023-04-01T13:37:52;1.42;;;0.75;;
68989;SDS011;56046;47.270;11.368;2023-04-01T13:42:54;0.95;;;0.60;;
68989;SDS011;56046;47.270;11.368;2023-04-01T13:45:23;0.80;;;0.70;;
68989;SDS011;56046;47.270;11.368;2023-04-01T13:55:54;2.67;;;0.80;;
68989;SDS011;56046;47.270;11.368;2023-04-01T13:58:29;0.85;;;0.68;;
68989;SDS011;56046;47.270;11.368;2023-04-01T14:37:40;1.27;;;0.63;;
68989;SDS011;56046;47.270;11.368;2023-04-01T14:42:59;1.10;;;0.70;;
68989;SDS011;56046;47.270;11.368;2023-04-01T14:45:31;1.17;;;0.70;;
68989;SDS011;56046;47.270;11.368;2023-04-01T14:48:07;2.03;;;0.80;;
68989;SDS011;56046;47.270;11.368;2023-04-01T14:50:42;1.07;;;0.60;;
68989;SDS011;56046;47.270;11.368;2023-04-01T14:55:56;0.93;;;0.77;;
68989;SDS011;56046;47.270;11.368;2023-04-01T14:58:24;0.90;;;0.63;;
68989;SDS011;56046;47.270;11.368;2023-04-01T15:34:37;0.45;;;0.40;;
68989;SDS011;56046;47.270;11.368;2023-04-01T15:37:16;1.10;;;0.70;;
68989;SDS011;56046;47.270;11.368;2023-04-01T15:39:57;0.98;;;0.63;;
68989;SDS011;56046;47.270;11.368;2023-04-01T15:49:47;1.38;;;0.60;;
68989;SDS011;56046;47.270;11.368;2023-04-01T15:55:08;0.73;;;0.70;;
68989;SDS011;56046;47.270;11.368;2023-04-01T16:00:13;0.93;;;0.57;;
68989;SDS011;56046;47.270;11.368;2023-04-01T16:21:02;1.67;;;0.70;;
68989;SDS011;56046;47.270;11.368;2023-04-01T16:23:35;0.67;;;0.47;;
68989;SDS011;56046;47.270;11.368;2023-04-01T16:34:02;1.10;;;0.73;;
68989;SDS011;56046;47.270;11.368;2023-04-01T16:41:48;0.83;;;0.57;;
68989;SDS011;56046;47.270;11.368;2023-04-01T16:44:22;1.35;;;0.60;;
68989;SDS011;56046;47.270;11.368;2023-04-01T16:46:49;0.75;;;0.60;;
68989;SDS011;56046;47.270;11.368;2023-04-01T16:54:29;1.10;;;0.70;;
68989;SDS011;56046;47.270;11.368;2023-04-01T16:57:01;1.73;;;0.80;;
68989;SDS011;56046;47.270;11.368;2023-04-01T16:59:38;2.25;;;0.80;;
68989;SDS011;56046;47.270;11.368;2023-04-01T17:04:33;2.27;;;0.67;;
68989;SDS011;56046;47.270;11.368;2023-04-01T17:07:34;1.02;;;0.60;;
68989;SDS011;56046;47.270;11.368;2023-04-01T17:14:59;1.42;;;0.60;;
68989;SDS011;56046;47.270;11.368;2023-04-01T17:22:47;0.87;;;0.57;;
68989;SDS011;56046;47.270;11.368;2023-04-01T17:25:20;1.75;;;0.68;;
68989;SDS011;56046;47.270;11.368;2023-04-01T17:27:54;0.50;;;0.45;;
68989;SDS011;56046;47.270;11.368;2023-04-01T17:35:13;0.77;;;0.50;;
68989;SDS011;56046;47.270;11.368;2023-04-01T17:55:55;0.87;;;0.50;;
68989;SDS011;56046;47.270;11.368;2023-04-01T18:06:00;1.20;;;0.50;;
68989;SDS011;56046;47.270;11.368;2023-04-01T18:22:15;1.92;;;0.60;;
68989;SDS011;56046;47.270;11.368;2023-04-01T18:24:44;1.17;;;0.70;;
68989;SDS011;56046;47.270;11.368;2023-04-01T18:27:22;1.50;;;0.70;;
68989;SDS011;56046;47.270;11.368;2023-04-01T18:29:55;1.10;;;0.50;;
68989;SDS011;56046;47.270;11.368;2023-04-01T18:35:00;1.83;;;0.90;;
68989;SDS011;56046;47.270;11.368;2023-04-01T18:43:04;1.00;;;0.57;;
68989;SDS011;56046;47.270;11.368;2023-04-01T18:45:37;1.90;;;0.73;;
68989;SDS011;56046;47.270;11.368;2023-04-01T18:50:39;1.33;;;0.60;;
68989;SDS011;56046;47.270;11.368;2023-04-01T18:53:15;2.28;;;0.60;;
68989;SDS011;56046;47.270;11.368;2023-04-01T18:58:42;4.10;;;0.80;;
68989;SDS011;56046;47.270;11.368;2023-04-01T19:06:27;1.67;;;0.95;;
68989;SDS011;56046;47.270;11.368;2023-04-01T19:08:53;1.95;;;0.50;;
68989;SDS011;56046;47.270;11.368;2023-04-01T19:11:24;1.40;;;0.60;;
68989;SDS011;56046;47.270;11.368;2023-04-01T19:16:43;2.40;;;0.60;;
68989;SDS011;56046;47.270;11.368;2023-04-01T19:22:00;0.93;;;0.40;;
68989;SDS011;56046;47.270;11.368;2023-04-01T19:24:35;0.80;;;0.60;;
68989;SDS011;56046;47.270;11.368;2023-04-01T19:29:38;1.17;;;0.52;;
68989;SDS011;56046;47.270;11.368;2023-04-01T19:37:57;1.13;;;0.50;;
68989;SDS011;56046;47.270;11.368;2023-04-01T19:40:40;1.40;;;0.77;;
68989;SDS011;56046;47.270;11.368;2023-04-01T19:50:51;1.08;;;0.50;;
68989;SDS011;56046;47.270;11.368;2023-04-01T19:53:25;0.67;;;0.50;;
68989;SDS011;56046;47.270;11.368;2023-04-01T19:55:57;1.77;;;0.60;;
68989;SDS011;56046;47.270;11.368;2023-04-01T20:00:58;1.10;;;0.60;;
68989;SDS011;56046;47.270;11.368;2023-04-01T20:16:20;4.82;;;0.80;;
68989;SDS011;56046;47.270;11.368;2023-04-01T20:18:51;2.75;;;1.00;;
68989;SDS011;56046;47.270;11.368;2023-04-01T20:21:24;1.75;;;0.70;;
68989;SDS011;56046;47.270;11.368;2023-04-01T20:23:53;1.57;;;0.60;;
68989;SDS011;56046;47.270;11.368;2023-04-01T20:26:31;2.00;;;0.68;;
68989;SDS011;56046;47.270;11.368;2023-04-01T20:44:46;1.77;;;0.77;;
68989;SDS011;56046;47.270;11.368;2023-04-01T21:00:55;1.53;;;0.70;;
68989;SDS011;56046;47.270;11.368;2023-04-01T22:07:25;1.20;;;0.70;;
68989;SDS011;56046;47.270;11.368;2023-04-01T22:17:28;2.87;;;0.60;;
68989;SDS011;56046;47.270;11.368;2023-04-01T22:20:04;0.98;;;0.50;;
68989;SDS011;56046;47.270;11.368;2023-04-01T22:22:49;1.50;;;0.75;;
68989;SDS011;56046;47.270;11.368;2023-04-01T22:25:18;1.13;;;0.60;;
68989;SDS011;56046;47.270;11.368;2023-04-01T22:28:03;0.95;;;0.52;;
68989;SDS011;56046;47.270;11.368;2023-04-01T22:30:34;1.27;;;0.50;;
68989;SDS011;56046;47.270;11.368;2023-04-01T22:43:41;1.92;;;0.57;;
68989;SDS011;56046;47.270;11.368;2023-04-01T22:56:20;1.20;;;0.52;;
68989;SDS011;56046;47.270;11.368;2023-04-01T23:01:33;1.77;;;0.70;;
68989;SDS011;56046;47.270;11.368;2023-04-01T23:04:02;2.90;;;0.50;;
68989;SDS011;56046;47.270;11.368;2023-04-01T23:06:31;1.20;;;0.60;;
68989;SDS011;56046;47.270;11.368;2023-04-01T23:09:02;1.10;;;0.50;;
68989;SDS011;56046;47.270;11.368;2023-04-01T23:14:11;1.00;;;0.50;;
68989;SDS011;56046;47.270;11.368;2023-04-01T23:16:43;0.82;;;0.55;;
68989;SDS011;56046;47.270;11.368;2023-04-01T23:21:47;2.55;;;0.70;;
68989;SDS011;56046;47.270;11.368;2023-04-01T23:27:09;1.50;;;0.60;;
68989;SDS011;56046;47.270;11.368;2023-04-01T23:29:36;2.50;;;0.75;;
68989;SDS011;56046;47.270;11.368;2023-04-01T23:32:03;1.10;;;0.50;;
68989;SDS011;56046;47.270;11.368;2023-04-01T23:34:32;1.23;;;0.70;;
68989;SDS011;56046;47.270;11.368;2023-04-01T23:37:05;1.05;;;0.50;;
68989;SDS011;56046;47.270;11.368;2023-04-01T23:39:39;1.90;;;0.70;;
68989;SDS011;56046;47.270;11.368;2023-04-01T23:44:31;1.38;;;0.45;;
68989;SDS011;56046;47.270;11.368;2023-04-01T23:46:57;1.00;;;0.60;;
68989;SDS011;56046;47.270;11.368;2023-04-01T23:49:33;1.73;;;0.73;;
68989;SDS011;56046;47.270;11.368;2023-04-01T23:52:00;0.98;;;0.55;;
68989;SDS011;56046;47.270;11.368;2023-04-01T23:54:34;2.05;;;0.70;;
68989;SDS011;56046;47.270;11.368;2023-04-01T23:57:11;1.85;;;0.70;;
68989;SDS011;56046;47.270;11.368;2023-04-01T23:59:37;1.05;;;0.57;;
